Time;durP1;ratioP1;P1;durP2;ratioP2;P2;SDS_P1;SDS_P2;PMS_P1;PMS_P2;Temp;Humidity;BMP_temperature;BMP_pressure;BME280_temperature;BME280_humidity;BME280_pressure;Samples;Min_cycle;Max_cycle;Signal;HPM_P1;HPM_P2
2023/08/02 00:02:09;;;;;;;1999.90;999.90;;;16.30;99.90;;;;;;4978132;28;20807;-73
2023/08/02 00:04:36;;;;;;;1999.90;999.90;;;16.40;99.90;;;;;;4978699;28;20889;-74
2023/08/02 00:07:03;;;;;;;1999.90;999.90;;;16.40;99.90;;;;;;4985557;28;20961;-73
2023/08/02 00:09:30;;;;;;;1999.90;999.90;;;16.50;99.90;;;;;;4983005;28;20451;-73
2023/08/02 00:11:57;;;;;;;1999.90;999.90;;;16.60;99.90;;;;;;4971903;28;20435;-73
2023/08/02 00:14:25;;;;;;;1999.90;999.90;;;16.50;99.90;;;;;;4983525;28;20435;-74
2023/08/02 00:16:52;;;;;;;1999.90;999.90;;;16.60;99.90;;;;;;4976692;28;20440;-72
2023/08/02 00:19:19;;;;;;;1999.90;999.90;;;16.70;99.90;;;;;;4984821;28;20442;-73
2023/08/02 00:21:47;;;;;;;1999.90;999.90;;;16.60;99.90;;;;;;4983013;28;20449;-74
2023/08/02 00:24:14;;;;;;;1999.90;999.90;;;16.70;99.90;;;;;;4981531;28;20521;-73
2023/08/02 00:26:41;;;;;;;1999.90;999.90;;;16.70;99.90;;;;;;4985200;28;20546;-70
2023/08/02 00:29:07;;;;;;;1999.90;999.90;;;16.80;99.90;;;;;;4982249;28;21451;-73
2023/08/02 00:31:36;;;;;;;1999.90;999.90;;;16.70;99.90;;;;;;4981166;28;20442;-73
2023/08/02 00:34:02;;;;;;;1999.90;999.90;;;16.70;99.90;;;;;;4980053;28;20944;-71
2023/08/02 00:36:29;;;;;;;1999.90;999.90;;;16.80;99.90;;;;;;4977615;28;20441;-74
2023/08/02 00:38:56;;;;;;;1999.90;999.90;;;16.90;99.90;;;;;;4991553;28;20437;-73
2023/08/02 00:41:23;;;;;;;1999.90;999.90;;;16.90;99.90;;;;;;4985471;28;20426;-70
2023/08/02 00:43:50;;;;;;;1999.90;999.90;;;16.90;99.90;;;;;;4987319;28;20433;-74
2023/08/02 00:46:19;;;;;;;1999.90;999.90;;;17.00;99.90;;;;;;4984447;28;20497;-73
2023/08/02 00:48:48;;;;;;;1999.90;999.90;;;16.90;99.90;;;;;;4991014;28;20987;-73
2023/08/02 00:51:16;;;;;;;1999.90;999.90;;;17.00;99.90;;;;;;4987500;28;20436;-73
2023/08/02 00:53:43;;;;;;;1999.90;999.90;;;17.00;99.90;;;;;;4991982;28;20489;-73
2023/08/02 00:56:10;;;;;;;1999.90;999.90;;;17.00;99.90;;;;;;4985263;28;20446;-73
2023/08/02 00:58:37;;;;;;;1999.90;999.90;;;16.80;99.90;;;;;;4987046;28;20950;-73
2023/08/02 01:01:07;;;;;;;1999.90;999.90;;;16.80;99.90;;;;;;4984298;28;20451;-73
2023/08/02 01:03:35;;;;;;;1999.90;999.90;;;16.70;99.90;;;;;;4986458;28;20492;-73
2023/08/02 01:06:10;;;;;;;1999.90;999.90;;;16.80;99.90;;;;;;4989520;28;20438;-73
2023/08/02 01:08:41;;;;;;;1999.90;999.90;;;16.90;99.90;;;;;;4986080;28;20434;-73
2023/08/02 01:11:15;;;;;;;1999.90;999.90;;;17.00;99.90;;;;;;4983626;28;20438;-73
2023/08/02 01:13:49;;;;;;;1999.90;999.90;;;17.10;99.90;;;;;;4991486;28;20445;-73
2023/08/02 01:16:17;;;;;;;1999.90;999.90;;;17.00;99.90;;;;;;4989930;28;20445;-73
2023/08/02 01:18:44;;;;;;;1999.90;999.90;;;17.10;99.90;;;;;;4990139;28;20442;-72
2023/08/02 01:21:12;;;;;;;1999.90;999.90;;;17.00;99.90;;;;;;4989023;28;20461;-73
2023/08/02 01:23:39;;;;;;;1999.90;999.90;;;17.10;99.90;;;;;;4990376;28;20532;-73
2023/08/02 01:26:06;;;;;;;1999.90;999.90;;;17.10;99.90;;;;;;4985264;28;20434;-73
2023/08/02 01:28:38;;;;;;;1999.90;999.90;;;17.10;99.90;;;;;;4987283;28;20440;-71
2023/08/02 01:31:06;;;;;;;1999.90;999.90;;;17.10;99.90;;;;;;4988473;28;20976;-73
2023/08/02 01:33:38;;;;;;;1999.90;999.90;;;17.20;99.90;;;;;;4991952;28;20925;-73
2023/08/02 01:36:05;;;;;;;1999.90;999.90;;;17.40;99.90;;;;;;4985939;28;20443;-72
2023/08/02 01:38:34;;;;;;;1999.90;999.90;;;17.10;99.90;;;;;;4991243;28;20511;-73
2023/08/02 01:41:00;;;;;;;1999.90;999.90;;;17.10;99.90;;;;;;4987228;28;20441;-74
2023/08/02 01:43:27;;;;;;;1999.90;999.90;;;17.10;99.90;;;;;;4989705;28;20434;-73
2023/08/02 01:45:54;;;;;;;1999.90;999.90;;;17.10;99.90;;;;;;4977900;28;20525;-74
2023/08/02 01:48:22;;;;;;;1999.90;999.90;;;17.10;99.90;;;;;;4990960;28;20821;-71
2023/08/02 01:50:49;;;;;;;1999.90;999.90;;;17.10;99.90;;;;;;4983578;28;20916;-73
2023/08/02 01:53:15;;;;;;;1999.90;999.90;;;17.10;99.90;;;;;;4984182;28;20520;-73
2023/08/02 01:55:44;;;;;;;1999.90;999.90;;;17.10;99.90;;;;;;4988058;28;20525;-73
2023/08/02 01:58:10;;;;;;;1999.90;999.90;;;17.20;99.90;;;;;;4988656;28;20442;-72
2023/08/02 02:00:37;;;;;;;1999.90;999.90;;;17.20;99.90;;;;;;4985965;28;20434;-73
2023/08/02 02:03:04;;;;;;;1999.90;999.90;;;17.20;99.90;;;;;;4988160;28;21022;-73
2023/08/02 02:05:31;;;;;;;1999.90;999.90;;;17.10;99.90;;;;;;4987163;28;20438;-73
2023/08/02 02:07:57;;;;;;;1999.90;999.90;;;17.10;99.90;;;;;;4989570;28;20445;-71
2023/08/02 02:10:24;;;;;;;1999.90;999.90;;;17.10;99.90;;;;;;4991210;28;21428;-74
2023/08/02 02:12:52;;;;;;;1999.90;999.90;;;17.10;99.90;;;;;;4991433;28;20438;-73
2023/08/02 02:15:19;;;;;;;1999.90;999.90;;;17.20;99.90;;;;;;4990017;28;20503;-74
2023/08/02 02:17:46;;;;;;;1999.90;999.90;;;17.10;99.90;;;;;;4988444;28;20441;-73
2023/08/02 02:20:13;;;;;;;1999.90;999.90;;;17.20;99.90;;;;;;4988581;28;20930;-74
2023/08/02 02:22:40;;;;;;;1999.90;999.90;;;17.30;99.90;;;;;;4991489;28;20430;-73
2023/08/02 02:25:07;;;;;;;1999.90;999.90;;;17.20;99.90;;;;;;4990762;28;20953;-73
2023/08/02 02:27:34;;;;;;;1999.90;999.90;;;17.20;99.90;;;;;;4987665;28;20434;-73
2023/08/02 02:30:02;;;;;;;1999.90;999.90;;;17.10;99.90;;;;;;4982795;28;20434;-74
2023/08/02 02:32:29;;;;;;;1999.90;999.90;;;17.00;99.90;;;;;;4980335;28;20426;-74
2023/08/02 02:34:56;;;;;;;1999.90;999.90;;;16.90;99.90;;;;;;4989824;28;20434;-73
2023/08/02 02:37:22;;;;;;;1999.90;999.90;;;16.90;99.90;;;;;;4986032;28;20442;-73
2023/08/02 02:39:49;;;;;;;1999.90;999.90;;;16.80;99.90;;;;;;4984012;28;20430;-73
2023/08/02 02:42:16;;;;;;;1999.90;999.90;;;16.90;99.90;;;;;;4990124;28;21001;-73
2023/08/02 02:44:43;;;;;;;1999.90;999.90;;;16.80;99.90;;;;;;4983256;28;20436;-74
2023/08/02 02:47:12;;;;;;;1999.90;999.90;;;16.60;99.90;;;;;;4983504;28;20437;-73
2023/08/02 02:49:39;;;;;;;1999.90;999.90;;;16.50;99.90;;;;;;4989141;28;20445;-73
2023/08/02 02:52:09;;;;;;;1999.90;999.90;;;16.40;99.90;;;;;;4990327;28;20439;-72
2023/08/02 02:54:37;;;;;;;1999.90;999.90;;;16.30;99.90;;;;;;4989556;28;20442;-73
2023/08/02 02:57:04;;;;;;;1999.90;999.90;;;16.30;99.90;;;;;;4987607;28;20445;-73
2023/08/02 02:59:32;;;;;;;1999.90;999.90;;;16.30;99.90;;;;;;4987541;28;20952;-73
2023/08/02 03:01:58;;;;;;;1999.90;999.90;;;16.20;99.90;;;;;;4989440;28;20430;-74
2023/08/02 03:04:26;;;;;;;1999.90;999.90;;;16.20;99.90;;;;;;4987969;28;20938;-74
2023/08/02 03:06:53;;;;;;;1999.90;999.90;;;16.10;99.90;;;;;;4984286;28;20814;-73
2023/08/02 03:09:20;;;;;;;1999.90;999.90;;;16.00;99.90;;;;;;4984860;28;20430;-73
2023/08/02 03:11:47;;;;;;;1999.90;999.90;;;16.10;99.90;;;;;;4985454;28;20969;-74
2023/08/02 03:14:14;;;;;;;1999.90;999.90;;;16.10;99.90;;;;;;4987014;28;20449;-73
2023/08/02 03:16:43;;;;;;;1999.90;999.90;;;16.00;99.90;;;;;;4984015;28;20434;-73
2023/08/02 03:19:10;;;;;;;1999.90;999.90;;;16.00;99.90;;;;;;4988547;28;20442;-74
2023/08/02 03:21:38;;;;;;;1999.90;999.90;;;16.00;99.90;;;;;;4988788;28;20449;-73
2023/08/02 03:24:05;;;;;;;1999.90;999.90;;;15.90;99.90;;;;;;4922086;28;1758566;-73
2023/08/02 03:26:32;;;;;;;1999.90;999.90;;;15.80;99.90;;;;;;4984723;28;20438;-74
2023/08/02 03:28:59;;;;;;;1999.90;999.90;;;15.80;99.90;;;;;;4988231;28;20474;-73
2023/08/02 03:31:26;;;;;;;1999.90;999.90;;;15.70;99.90;;;;;;4989506;28;20442;-72
2023/08/02 03:33:52;;;;;;;1999.90;999.90;;;15.60;99.90;;;;;;4988684;28;20457;-73
2023/08/02 03:36:19;;;;;;;1999.90;999.90;;;15.50;99.90;;;;;;4986314;28;20441;-73
2023/08/02 03:38:47;;;;;;;1999.90;999.90;;;15.60;99.90;;;;;;4989002;28;20466;-73
2023/08/02 03:41:14;;;;;;;1999.90;999.90;;;15.60;99.90;;;;;;4988022;28;20438;-72
2023/08/02 03:43:41;;;;;;;1999.90;999.90;;;15.60;99.90;;;;;;4986363;28;20439;-73
2023/08/02 03:46:08;;;;;;;1999.90;999.90;;;15.60;99.90;;;;;;4990173;28;20434;-73
2023/08/02 03:48:34;;;;;;;1999.90;999.90;;;15.60;99.90;;;;;;4982355;28;20434;-73
2023/08/02 03:51:02;;;;;;;1999.90;999.90;;;15.50;99.90;;;;;;4989256;28;20442;-73
2023/08/02 03:53:31;;;;;;;1999.90;999.90;;;15.50;99.90;;;;;;4980684;28;20443;-73
2023/08/02 03:55:59;;;;;;;1999.90;999.90;;;15.70;99.90;;;;;;4978715;28;20436;-73
2023/08/02 03:58:26;;;;;;;1999.90;999.90;;;15.70;99.90;;;;;;4987559;28;20441;-71
2023/08/02 04:00:52;;;;;;;1999.90;999.90;;;15.70;99.90;;;;;;4988992;28;20446;-73
2023/08/02 04:03:19;;;;;;;1999.90;999.90;;;15.60;99.90;;;;;;4982964;28;20427;-73
2023/08/02 04:05:46;;;;;;;1999.90;999.90;;;15.60;99.90;;;;;;4989947;28;20529;-73
2023/08/02 04:08:13;;;;;;;1999.90;999.90;;;15.50;99.90;;;;;;4987219;28;20445;-71
2023/08/02 04:10:39;;;;;;;1999.90;999.90;;;15.50;99.90;;;;;;4988663;28;20451;-72
2023/08/02 04:13:07;;;;;;;1999.90;999.90;;;15.50;99.90;;;;;;4988430;28;20442;-72
2023/08/02 04:15:35;;;;;;;1999.90;999.90;;;15.60;99.90;;;;;;4989564;28;20438;-72
2023/08/02 04:18:02;;;;;;;1999.90;999.90;;;15.70;99.90;;;;;;4988049;28;20807;-72
2023/08/02 04:20:29;;;;;;;1999.90;999.90;;;15.60;99.90;;;;;;4988229;28;20453;-72
2023/08/02 04:22:55;;;;;;;1999.90;999.90;;;15.60;99.90;;;;;;4976680;28;20436;-72
2023/08/02 04:25:23;;;;;;;1999.90;999.90;;;15.70;99.90;;;;;;4986488;28;20437;-73
2023/08/02 04:27:49;;;;;;;1999.90;999.90;;;15.80;99.90;;;;;;5049528;23;20436;-74
2023/08/02 04:30:17;;;;;;;1999.90;999.90;;;16.00;99.90;;;;;;5005531;28;20455;-71
2023/08/02 04:32:44;;;;;;;1999.90;999.90;;;16.20;99.90;;;;;;5014738;28;20432;-74
2023/08/02 04:35:11;;;;;;;1999.90;999.90;;;16.30;99.90;;;;;;5010169;28;20448;-73
2023/08/02 04:37:38;;;;;;;1999.90;999.90;;;16.30;99.90;;;;;;5012919;28;20436;-73
2023/08/02 04:40:05;;;;;;;1999.90;999.90;;;16.40;99.90;;;;;;5008086;28;20953;-74
2023/08/02 04:42:32;;;;;;;1999.90;999.90;;;16.60;99.90;;;;;;5008939;28;20428;-74
2023/08/02 04:44:59;;;;;;;1999.90;999.90;;;16.70;99.90;;;;;;5007791;28;20433;-71
2023/08/02 04:47:27;;;;;;;1999.90;999.90;;;16.70;99.90;;;;;;5007459;28;20444;-74
2023/08/02 04:49:55;;;;;;;1999.90;999.90;;;16.70;99.90;;;;;;5007223;28;20460;-74
2023/08/02 04:52:21;;;;;;;1999.90;999.90;;;16.70;99.90;;;;;;5000845;28;20524;-71
2023/08/02 04:54:48;;;;;;;1999.90;999.90;;;16.80;99.90;;;;;;5008033;28;20848;-73
2023/08/02 04:57:15;;;;;;;1999.90;999.90;;;16.90;99.90;;;;;;5003880;28;20450;-74
2023/08/02 04:59:41;;;;;;;1999.90;999.90;;;16.90;99.90;;;;;;4999632;28;20443;-70
2023/08/02 05:02:08;;;;;;;1999.90;999.90;;;17.00;99.90;;;;;;4995473;28;20434;-75
2023/08/02 05:04:36;;;;;;;1999.90;999.90;;;17.20;99.90;;;;;;5007357;28;20916;-75
2023/08/02 05:07:03;;;;;;;1999.90;999.90;;;17.30;99.90;;;;;;5008087;28;20436;-73
2023/08/02 05:09:31;;;;;;;1999.90;999.90;;;17.60;99.90;;;;;;5005276;28;20519;-73
2023/08/02 05:11:58;;;;;;;1999.90;999.90;;;17.70;99.90;;;;;;5007543;28;20527;-74
2023/08/02 05:14:24;;;;;;;1999.90;999.90;;;17.80;99.90;;;;;;4998870;28;20459;-72
2023/08/02 05:16:51;;;;;;;1999.90;999.90;;;17.80;99.90;;;;;;5007816;28;20461;-73
2023/08/02 05:19:18;;;;;;;1999.90;999.90;;;17.70;99.90;;;;;;4999672;28;20443;-76
2023/08/02 05:21:46;;;;;;;1999.90;999.90;;;17.70;99.90;;;;;;5008136;28;20432;-71
2023/08/02 05:24:12;;;;;;;1999.90;999.90;;;17.80;99.90;;;;;;5009940;28;20432;-74
2023/08/02 05:26:39;;;;;;;1999.90;999.90;;;17.80;99.90;;;;;;5006468;28;20440;-73
2023/08/02 05:29:06;;;;;;;1999.90;999.90;;;17.90;99.90;;;;;;5009765;28;20436;-75
2023/08/02 05:31:33;;;;;;;1999.90;999.90;;;17.90;99.90;;;;;;5007697;28;20443;-74
2023/08/02 05:33:59;;;;;;;1999.90;999.90;;;17.90;99.90;;;;;;4997730;28;20441;-74
2023/08/02 05:36:26;;;;;;;1999.90;999.90;;;18.10;99.90;;;;;;5005147;28;20503;-70
2023/08/02 05:38:55;;;;;;;1999.90;999.90;;;18.30;99.90;;;;;;5005330;28;20439;-75
2023/08/02 05:41:21;;;;;;;1999.90;999.90;;;18.40;99.90;;;;;;5005144;28;20435;-74
2023/08/02 05:43:48;;;;;;;1999.90;999.90;;;18.40;99.90;;;;;;4995914;28;20420;-73
2023/08/02 05:46:15;;;;;;;1999.90;999.90;;;18.60;99.90;;;;;;4993481;28;20441;-77
2023/08/02 05:48:42;;;;;;;1999.90;999.90;;;18.60;99.90;;;;;;4993236;28;20429;-74
2023/08/02 05:51:08;;;;;;;1999.90;999.90;;;18.70;99.90;;;;;;4993633;28;20415;-70
2023/08/02 05:53:35;;;;;;;1999.90;999.90;;;19.30;99.90;;;;;;4996888;28;21161;-73
2023/08/02 05:56:03;;;;;;;1999.90;999.90;;;19.30;99.90;;;;;;4993481;28;20414;-74
2023/08/02 05:58:30;;;;;;;1999.90;999.90;;;19.20;99.90;;;;;;4992840;28;20503;-73
2023/08/02 06:00:57;;;;;;;1999.90;999.90;;;18.90;99.90;;;;;;4993586;28;20415;-74
2023/08/02 06:03:23;;;;;;;1999.90;999.90;;;18.80;99.90;;;;;;5003616;28;20433;-74
2023/08/02 06:05:50;;;;;;;1999.90;999.90;;;18.90;99.90;;;;;;4994046;28;20434;-75
2023/08/02 06:08:17;;;;;;;1999.90;999.90;;;18.90;99.90;;;;;;4997814;28;20422;-70
2023/08/02 06:10:44;;;;;;;1999.90;999.90;;;18.70;99.90;;;;;;4994348;28;20929;-74
2023/08/02 06:13:12;;;;;;;1999.90;999.90;;;18.80;99.90;;;;;;4998893;28;20426;-76
2023/08/02 06:15:39;;;;;;;1999.90;999.90;;;19.00;99.90;;;;;;4993268;28;20450;-76
2023/08/02 06:18:04;;;;;;;1999.90;999.90;;;18.90;99.90;;;;;;4993090;28;20509;-74
2023/08/02 06:20:31;;;;;;;1999.90;999.90;;;18.90;99.90;;;;;;4993584;28;20550;-74
2023/08/02 06:22:58;;;;;;;1999.90;999.90;;;18.70;99.90;;;;;;4992882;28;20430;-73
2023/08/02 06:25:25;;;;;;;1999.90;999.90;;;18.70;99.90;;;;;;4993011;28;20421;-74
2023/08/02 06:27:51;;;;;;;1999.90;999.90;;;18.70;99.90;;;;;;5000502;28;20417;-80
2023/08/02 06:30:20;;;;;;;1999.90;999.90;;;18.80;99.90;;;;;;5005156;28;20433;-73
2023/08/02 06:32:46;;;;;;;1999.90;999.90;;;18.90;99.90;;;;;;4998413;28;20440;-73
2023/08/02 06:35:13;;;;;;;1999.90;999.90;;;19.10;99.90;;;;;;4991872;28;20802;-74
2023/08/02 06:37:40;;;;;;;1999.90;999.90;;;19.40;99.90;;;;;;4992729;28;20456;-74
2023/08/02 06:40:08;;;;;;;1999.90;999.90;;;19.60;99.90;;;;;;5001627;28;20439;-73
2023/08/02 06:42:35;;;;;;;1999.90;999.90;;;19.80;99.90;;;;;;4999534;28;20432;-73
2023/08/02 06:45:02;;;;;;;1999.90;999.90;;;19.90;99.90;;;;;;5004930;28;20459;-74
2023/08/02 06:47:30;;;;;;;1999.90;999.90;;;20.10;99.90;;;;;;5005996;28;20522;-74
2023/08/02 06:49:57;;;;;;;1999.90;999.90;;;20.70;99.90;;;;;;4997023;28;20444;-73
2023/08/02 06:52:24;;;;;;;1999.90;999.90;;;20.60;99.90;;;;;;5008293;28;20436;-74
2023/08/02 06:54:52;;;;;;;1999.90;999.90;;;20.60;99.90;;;;;;5011993;28;20424;-74
2023/08/02 06:57:22;;;;;;;1999.90;999.90;;;20.60;99.90;;;;;;5003063;28;20434;-75
2023/08/02 06:59:49;;;;;;;1999.90;999.90;;;20.70;99.90;;;;;;5005492;28;20904;-76
2023/08/02 07:02:16;;;;;;;1999.90;999.90;;;21.00;99.90;;;;;;5004133;28;20422;-75
2023/08/02 07:04:44;;;;;;;1999.90;999.90;;;21.00;99.90;;;;;;4992233;28;20431;-74
2023/08/02 07:07:10;;;;;;;1999.90;999.90;;;21.00;99.90;;;;;;4991950;28;20418;-74
2023/08/02 07:09:37;;;;;;;1999.90;999.90;;;20.90;99.90;;;;;;4991834;28;20426;-73
2023/08/02 07:12:04;;;;;;;1999.90;999.90;;;20.60;99.90;;;;;;4992571;28;20498;-74
2023/08/02 07:14:31;;;;;;;1999.90;999.90;;;20.40;99.90;;;;;;4992272;28;20435;-73
2023/08/02 07:16:58;;;;;;;1999.90;999.90;;;20.40;99.90;;;;;;4992038;28;20909;-77
2023/08/02 07:19:24;;;;;;;1999.90;999.90;;;20.60;99.90;;;;;;4991813;28;20411;-74
2023/08/02 07:21:53;;;;;;;1999.90;999.90;;;20.60;99.90;;;;;;4992192;28;20416;-74
2023/08/02 07:24:19;;;;;;;1999.90;999.90;;;20.70;99.90;;;;;;4992023;28;20802;-74
2023/08/02 07:26:46;;;;;;;1999.90;999.90;;;20.90;99.90;;;;;;4991876;28;20403;-73
2023/08/02 07:29:13;;;;;;;1999.90;999.90;;;20.90;99.90;;;;;;4991680;28;20421;-75
2023/08/02 07:31:39;;;;;;;1999.90;999.90;;;20.70;99.90;;;;;;4991903;28;20802;-74
2023/08/02 07:34:06;;;;;;;1999.90;999.90;;;20.90;99.90;;;;;;4991808;28;20410;-72
2023/08/02 07:36:33;;;;;;;1999.90;999.90;;;20.90;99.90;;;;;;4991526;28;20421;-76
2023/08/02 07:39:01;;;;;;;1999.90;999.90;;;21.00;99.90;;;;;;4991617;28;20421;-74
2023/08/02 07:41:28;;;;;;;1999.90;999.90;;;21.20;99.90;;;;;;5001103;28;20433;-74
2023/08/02 07:43:55;;;;;;;1999.90;999.90;;;21.10;99.90;;;;;;4991567;28;20434;-74
2023/08/02 07:46:23;;;;;;;1999.90;999.90;;;21.30;99.90;;;;;;4991390;28;20421;-73
2023/08/02 07:48:51;;;;;;;1999.90;999.90;;;21.20;99.90;;;;;;4991172;28;20497;-74
2023/08/02 07:51:18;;;;;;;1999.90;999.90;;;21.00;99.90;;;;;;4991752;28;20489;-75
2023/08/02 07:53:46;;;;;;;1999.90;999.90;;;21.10;99.90;;;;;;4991612;28;20511;-74
2023/08/02 07:56:14;;;;;;;1999.90;999.90;;;21.30;99.90;;;;;;4991854;28;20419;-71
2023/08/02 07:58:40;;;;;;;1999.90;999.90;;;21.30;99.90;;;;;;4991545;28;20419;-71
2023/08/02 08:01:08;;;;;;;1999.90;999.90;;;20.80;99.90;;;;;;4991372;28;20510;-73
2023/08/02 08:03:35;;;;;;;1999.90;999.90;;;20.70;99.90;;;;;;4991084;28;20434;-73
2023/08/02 08:06:10;;;;;;;1999.90;999.90;;;21.00;99.90;;;;;;4991768;28;20410;-73
2023/08/02 08:08:36;;;;;;;1999.90;999.90;;;21.10;99.90;;;;;;4990935;28;20419;-76
2023/08/02 08:11:03;;;;;;;1999.90;999.90;;;21.30;99.90;;;;;;4991203;28;20406;-73
2023/08/02 08:13:31;;;;;;;1999.90;999.90;;;21.40;99.90;;;;;;4991095;28;20883;-74
2023/08/02 08:15:58;;;;;;;1999.90;999.90;;;21.60;99.90;;;;;;4991218;28;20891;-74
2023/08/02 08:18:25;;;;;;;1999.90;999.90;;;21.70;99.90;;;;;;4990791;28;20422;-71
2023/08/02 08:20:51;;;;;;;1999.90;999.90;;;21.80;99.90;;;;;;4990991;28;20952;-73
2023/08/02 08:23:18;;;;;;;1999.90;999.90;;;21.80;99.90;;;;;;4990862;28;20883;-74
2023/08/02 08:25:45;;;;;;;1999.90;999.90;;;21.50;99.90;;;;;;4991159;28;20410;-73
2023/08/02 08:28:12;;;;;;;1999.90;999.90;;;21.50;99.90;;;;;;4990883;28;20422;-77
2023/08/02 08:30:40;;;;;;;1999.90;999.90;;;21.50;99.90;;;;;;4990922;28;20484;-73
2023/08/02 08:33:06;;;;;;;1999.90;999.90;;;21.50;99.90;;;;;;4990924;28;20917;-73
2023/08/02 08:35:35;;;;;;;1999.90;999.90;;;21.70;99.90;;;;;;4991043;28;20414;-73
2023/08/02 08:38:02;;;;;;;1999.90;999.90;;;22.10;99.90;;;;;;4990786;28;20450;-73
2023/08/02 08:40:28;;;;;;;1999.90;999.90;;;22.60;99.90;;;;;;4990799;28;20772;-75
2023/08/02 08:42:57;;;;;;;1999.90;999.90;;;23.20;99.90;;;;;;4990936;28;20406;-73
2023/08/02 08:45:25;;;;;;;1999.90;999.90;;;23.40;99.90;;;;;;4990598;28;20910;-74
2023/08/02 08:47:53;;;;;;;1999.90;999.90;;;23.20;99.90;;;;;;4990824;28;20418;-74
2023/08/02 08:50:22;;;;;;;1999.90;999.90;;;23.30;99.90;;;;;;4990780;28;20449;-73
2023/08/02 08:52:51;;;;;;;1999.90;999.90;;;23.50;99.90;;;;;;4990736;28;20421;-71
2023/08/02 08:55:18;;;;;;;1999.90;999.90;;;23.40;99.90;;;;;;4990797;28;20516;-73
2023/08/02 08:57:46;;;;;;;1999.90;999.90;;;23.00;99.90;;;;;;4990649;28;20997;-73
2023/08/02 09:00:14;;;;;;;1999.90;999.90;;;22.50;99.90;;;;;;4994198;28;20956;-73
2023/08/02 09:02:43;;;;;;;1999.90;999.90;;;22.10;99.90;;;;;;4994558;28;20418;-70
2023/08/02 09:05:11;;;;;;;1999.90;999.90;;;21.90;99.90;;;;;;4994595;28;20434;-75
2023/08/02 09:07:38;;;;;;;1999.90;999.90;;;21.80;99.90;;;;;;4994442;28;20502;-73
2023/08/02 09:10:06;;;;;;;1999.90;999.90;;;21.60;99.90;;;;;;4994343;28;20413;-74
2023/08/02 09:12:44;;;;;;;1999.90;999.90;;;21.50;99.90;;;;;;4994295;28;20425;-74
2023/08/02 09:15:11;;;;;;;1999.90;999.90;;;21.30;99.90;;;;;;4994548;28;20413;-73
2023/08/02 09:17:49;;;;;;;1999.90;999.90;;;20.90;99.90;;;;;;4994329;28;20414;-72
2023/08/02 09:20:19;;;;;;;1999.90;999.90;;;20.70;99.90;;;;;;4994068;28;20410;-73
2023/08/02 09:22:46;;;;;;;1999.90;999.90;;;20.80;99.90;;;;;;4994236;28;20511;-71
2023/08/02 09:25:24;;;;;;;1999.90;999.90;;;20.60;99.90;;;;;;4994361;28;20918;-76
2023/08/02 09:27:51;;;;;;;1999.90;999.90;;;20.30;99.90;;;;;;4993948;28;20890;-73
2023/08/02 09:30:27;;;;;;;1999.90;999.90;;;19.90;99.90;;;;;;4994051;28;20420;-73
2023/08/02 09:33:01;;;;;;;1999.90;999.90;;;19.80;99.90;;;;;;4994222;28;20410;-74
2023/08/02 09:35:33;;;;;;;1999.90;999.90;;;19.60;99.90;;;;;;4993903;28;20414;-73
2023/08/02 09:38:00;;;;;;;1999.90;999.90;;;19.50;99.90;;;;;;4993953;28;20497;-75
2023/08/02 09:40:37;;;;;;;1999.90;999.90;;;19.30;99.90;;;;;;4993918;28;20497;-73
2023/08/02 09:43:04;;;;;;;1999.90;999.90;;;19.10;99.90;;;;;;4994085;28;20418;-76
2023/08/02 09:45:35;;;;;;;1999.90;999.90;;;19.10;99.90;;;;;;4993757;28;20520;-72
2023/08/02 09:48:02;;;;;;;1999.90;999.90;;;19.20;99.90;;;;;;4993900;28;20422;-73
2023/08/02 09:50:33;;;;;;;1999.90;999.90;;;19.10;99.90;;;;;;4993841;28;20418;-73
2023/08/02 09:53:14;;;;;;;1999.90;999.90;;;19.30;99.90;;;;;;4993855;28;20457;-73
2023/08/02 09:55:44;;;;;;;1999.90;999.90;;;19.50;99.90;;;;;;4993659;28;20407;-73
2023/08/02 09:58:12;;;;;;;1999.90;999.90;;;19.50;99.90;;;;;;4993347;28;20418;-73
2023/08/02 10:00:40;;;;;;;1999.90;999.90;;;19.70;99.90;;;;;;4993829;28;20411;-73
2023/08/02 10:03:07;;;;;;;1999.90;999.90;;;19.90;99.90;;;;;;4993511;28;20411;-72
2023/08/02 10:05:42;;;;;;;1999.90;999.90;;;20.00;99.90;;;;;;4993381;28;20426;-73
2023/08/02 10:08:09;;;;;;;1999.90;999.90;;;20.20;99.90;;;;;;4993237;28;20414;-72
2023/08/02 10:10:40;;;;;;;1999.90;999.90;;;20.20;99.90;;;;;;4993161;28;20425;-73
2023/08/02 10:13:11;;;;;;;1999.90;999.90;;;20.10;99.90;;;;;;4993593;28;20418;-73
2023/08/02 10:15:40;;;;;;;1999.90;999.90;;;20.20;99.90;;;;;;4993662;28;20414;-72
2023/08/02 10:18:07;;;;;;;1999.90;999.90;;;20.10;99.90;;;;;;4993176;28;20441;-73
2023/08/02 10:20:38;;;;;;;1999.90;999.90;;;20.10;99.90;;;;;;4993060;28;20429;-73
2023/08/02 10:23:05;;;;;;;1999.90;999.90;;;20.00;99.90;;;;;;4993186;28;20474;-75
2023/08/02 10:25:34;;;;;;;1999.90;999.90;;;20.00;99.90;;;;;;4993037;28;20434;-73
2023/08/02 10:28:02;;;;;;;1999.90;999.90;;;20.00;99.90;;;;;;5013449;23;20425;-70
2023/08/02 10:30:29;;;;;;;1999.90;999.90;;;19.90;99.90;;;;;;4971056;28;20804;-70
2023/08/02 10:33:11;;;;;;;1999.90;999.90;;;20.00;99.90;;;;;;4973834;28;20416;-70
2023/08/02 10:35:59;;;;;;;1999.90;999.90;;;19.90;99.90;;;;;;4973824;28;20409;-71
2023/08/02 10:38:27;;;;;;;1999.90;999.90;;;19.80;99.90;;;;;;4968522;28;20417;-70
2023/08/02 10:41:04;;;;;;;1999.90;999.90;;;19.80;99.90;;;;;;4953993;29;20421;-70
2023/08/02 10:43:32;;;;;;;1999.90;999.90;;;19.80;99.90;;;;;;4954201;29;20414;-70
2023/08/02 10:46:16;;;;;;;1999.90;999.90;;;19.80;99.90;;;;;;4954114;29;20433;-71
2023/08/02 10:48:42;;;;;;;1999.90;999.90;;;19.60;99.90;;;;;;4953601;28;20414;-70
2023/08/02 10:51:30;;;;;;;1999.90;999.90;;;19.70;99.90;;;;;;4953877;29;20425;-71
2023/08/02 10:54:15;;;;;;;1999.90;999.90;;;19.60;99.90;;;;;;4954300;29;20524;-70
2023/08/02 10:57:14;;;;;;;1999.90;999.90;;;19.50;99.90;;;;;;4952847;28;20450;-70
2023/08/02 10:59:41;;;;;;;1999.90;999.90;;;19.50;99.90;;;;;;4944297;28;20508;-70
2023/08/02 11:02:10;;;;;;;1999.90;999.90;;;19.40;99.90;;;;;;4952948;29;20477;-70
2023/08/02 11:04:38;;;;;;;1999.90;999.90;;;19.30;99.90;;;;;;4953792;29;20460;-71
2023/08/02 11:07:18;;;;;;;1999.90;999.90;;;19.50;99.90;;;;;;4952257;29;20445;-70
2023/08/02 11:09:46;;;;;;;1999.90;999.90;;;19.40;99.90;;;;;;4953097;28;20421;-70
2023/08/02 11:12:13;;;;;;;1999.90;999.90;;;19.60;99.90;;;;;;4953546;29;20425;-71
2023/08/02 11:14:41;;;;;;;1999.90;999.90;;;19.60;99.90;;;;;;4953365;29;20429;-70
2023/08/02 11:17:08;;;;;;;1999.90;999.90;;;19.80;99.90;;;;;;4952690;29;20447;-71
2023/08/02 11:19:36;;;;;;;1999.90;999.90;;;19.90;99.90;;;;;;4953013;28;20422;-71
2023/08/02 11:22:03;;;;;;;1999.90;999.90;;;20.00;99.90;;;;;;4953109;28;20418;-71
2023/08/02 11:24:42;;;;;;;1999.90;999.90;;;20.00;99.90;;;;;;4952312;29;20433;-71
2023/08/02 11:27:08;;;;;;;1999.90;999.90;;;19.90;99.90;;;;;;4953361;29;20474;-70
2023/08/02 11:29:36;;;;;;;1999.90;999.90;;;19.90;99.90;;;;;;4952064;28;20445;-71
2023/08/02 11:32:04;;;;;;;1999.90;999.90;;;19.70;99.90;;;;;;4953262;29;20422;-71
2023/08/02 11:34:36;;;;;;;1999.90;999.90;;;19.70;99.90;;;;;;4953116;29;20942;-70
2023/08/02 11:37:03;;;;;;;1999.90;999.90;;;19.60;99.90;;;;;;4953631;29;20436;-71
2023/08/02 11:39:31;;;;;;;1999.90;999.90;;;19.30;99.90;;;;;;4953732;28;20410;-71
2023/08/02 11:42:03;;;;;;;1999.90;999.90;;;19.20;99.90;;;;;;4952566;29;20814;-71
2023/08/02 11:44:30;;;;;;;1999.90;999.90;;;19.30;99.90;;;;;;4954771;28;20436;-71
2023/08/02 11:46:58;;;;;;;1999.90;999.90;;;19.10;99.90;;;;;;4954174;28;20500;-71
2023/08/02 11:49:25;;;;;;;1999.90;999.90;;;19.20;99.90;;;;;;4952597;28;20464;-71
2023/08/02 11:51:51;;;;;;;1999.90;999.90;;;19.30;99.90;;;;;;4959380;28;20444;-71
2023/08/02 11:54:19;;;;;;;1999.90;999.90;;;19.40;99.90;;;;;;4953110;28;20441;-71
2023/08/02 11:56:48;;;;;;;1999.90;999.90;;;19.60;99.90;;;;;;4951397;29;20433;-71
2023/08/02 11:59:15;;;;;;;1999.90;999.90;;;19.40;99.90;;;;;;4954861;28;20824;-71
2023/08/02 12:01:42;;;;;;;1999.90;999.90;;;19.30;99.90;;;;;;4961208;28;20442;-71
2023/08/02 12:04:09;;;;;;;1999.90;999.90;;;19.20;99.90;;;;;;4958931;28;20446;-71